createdAt,value
2024-01-30T00:00:22.082Z,4.10
2024-01-30T00:01:22.185Z,4.10
2024-01-30T00:02:22.097Z,4.10
2024-01-30T00:03:22.065Z,4.10
2024-01-30T00:04:22.086Z,4.09
2024-01-30T00:05:22.096Z,4.10
2024-01-30T00:06:22.041Z,4.09
2024-01-30T00:07:22.151Z,4.09
2024-01-30T00:08:22.048Z,4.09
2024-01-30T00:09:21.985Z,4.10
2024-01-30T00:10:22.077Z,4.10
2024-01-30T00:11:22.016Z,4.09
2024-01-30T00:12:21.961Z,4.09
2024-01-30T00:13:22.027Z,4.12
2024-01-30T00:14:21.982Z,4.12
2024-01-30T00:15:21.942Z,4.13
2024-01-30T00:16:21.994Z,4.12
2024-01-30T00:17:21.886Z,4.10
2024-01-30T00:18:21.887Z,4.10
2024-01-30T00:19:22.005Z,4.09
2024-01-30T00:20:22.185Z,4.12
2024-01-30T00:21:21.907Z,4.12
2024-01-30T00:22:21.942Z,4.12
2024-01-30T00:23:21.842Z,4.12
2024-01-30T00:24:21.860Z,4.12
2024-01-30T00:25:21.846Z,4.10
2024-01-30T00:26:21.831Z,4.12
2024-01-30T00:27:21.828Z,4.13
2024-01-30T00:28:21.821Z,4.13
2024-01-30T00:29:21.765Z,4.16
2024-01-30T00:30:21.796Z,4.13
2024-01-30T00:31:21.822Z,4.10
2024-01-30T00:32:21.797Z,4.12
2024-01-30T00:33:21.795Z,4.13
2024-01-30T00:34:21.790Z,4.10
2024-01-30T00:35:21.719Z,4.09
2024-01-30T00:36:21.700Z,4.08
2024-01-30T00:37:21.841Z,4.06
2024-01-30T00:38:21.732Z,4.05
2024-01-30T00:39:21.711Z,4.00
2024-01-30T00:40:21.771Z,4.00
2024-01-30T00:41:21.687Z,3.92
2024-01-30T00:42:21.632Z,3.91
2024-01-30T00:43:21.667Z,3.88
2024-01-30T00:44:21.657Z,3.87
2024-01-30T00:45:21.642Z,3.91
2024-01-30T00:46:21.712Z,3.91
2024-01-30T00:47:21.632Z,3.88
2024-01-30T00:48:21.583Z,3.87
2024-01-30T00:49:21.689Z,3.85
2024-01-30T00:50:21.631Z,3.85
2024-01-30T00:51:21.586Z,3.81
2024-01-30T00:52:21.675Z,3.81
2024-01-30T00:53:21.507Z,3.78
2024-01-30T00:54:21.525Z,3.72
2024-01-30T00:55:21.654Z,3.69
2024-01-30T00:56:21.554Z,3.62
2024-01-30T00:57:21.550Z,3.62
2024-01-30T00:58:21.550Z,3.60
2024-01-30T00:59:21.516Z,3.55
2024-01-30T01:00:21.457Z,3.55
2024-01-30T01:01:21.502Z,3.56
2024-01-30T01:02:21.453Z,3.56
2024-01-30T01:03:21.477Z,3.59
2024-01-30T01:04:21.540Z,3.55
2024-01-30T01:05:21.408Z,3.55
2024-01-30T01:06:21.430Z,3.56
2024-01-30T01:07:21.411Z,3.55
2024-01-30T01:08:21.401Z,3.54
2024-01-30T01:09:21.352Z,3.52
2024-01-30T01:10:21.473Z,3.56
2024-01-30T01:11:21.345Z,3.54
2024-01-30T01:12:21.333Z,3.55
2024-01-30T01:13:21.471Z,3.59
2024-01-30T01:14:21.337Z,3.56
2024-01-30T01:15:21.370Z,3.62
2024-01-30T01:16:21.460Z,3.63
2024-01-30T01:17:21.276Z,3.60
2024-01-30T01:18:21.292Z,3.59
2024-01-30T01:19:21.356Z,3.62
2024-01-30T01:20:21.261Z,3.59
2024-01-30T01:21:21.259Z,3.56
2024-01-30T01:22:21.320Z,3.59
2024-01-30T01:23:21.218Z,3.56
2024-01-30T01:24:21.247Z,3.52
2024-01-30T01:25:21.294Z,3.54
2024-01-30T01:26:21.220Z,3.55
2024-01-30T01:27:21.212Z,3.52
2024-01-30T01:28:21.295Z,3.54
2024-01-30T01:29:21.183Z,3.55
2024-01-30T01:30:21.142Z,3.54
2024-01-30T01:31:21.258Z,3.54
2024-01-30T01:32:21.145Z,3.52
2024-01-30T01:33:21.198Z,3.54
2024-01-30T01:34:21.199Z,3.51
2024-01-30T01:35:21.083Z,3.52
2024-01-30T01:36:21.086Z,3.54
2024-01-30T01:37:21.091Z,3.52
2024-01-30T01:38:21.075Z,3.51
2024-01-30T01:39:21.093Z,3.51
2024-01-30T01:40:21.111Z,3.52
2024-01-30T01:41:21.023Z,3.49
2024-01-30T01:42:20.998Z,3.49
2024-01-30T01:43:21.108Z,3.48
2024-01-30T01:44:21.027Z,3.44
2024-01-30T01:45:20.995Z,3.44
2024-01-30T01:46:21.003Z,3.36
2024-01-30T01:47:20.970Z,3.41
2024-01-30T01:48:21.007Z,3.37
2024-01-30T01:49:20.971Z,3.37
2024-01-30T01:50:21.221Z,3.33
2024-01-30T01:51:21.003Z,3.30
2024-01-30T01:52:20.937Z,3.27
2024-01-30T01:53:20.872Z,3.27
2024-01-30T01:54:20.868Z,3.25
2024-01-30T01:55:20.893Z,3.26
2024-01-30T01:56:20.853Z,3.25
2024-01-30T01:57:20.854Z,3.22
2024-01-30T01:58:20.865Z,3.23
2024-01-30T01:59:20.808Z,3.23
2024-01-30T02:00:20.797Z,3.20
2024-01-30T02:01:20.905Z,3.18
2024-01-30T02:02:20.819Z,3.17
2024-01-30T02:03:20.818Z,3.15
2024-01-30T02:04:20.781Z,3.15
2024-01-30T02:05:20.750Z,3.11
2024-01-30T02:06:20.732Z,3.14
2024-01-30T02:07:20.828Z,3.15
2024-01-30T02:08:20.773Z,3.15
2024-01-30T02:09:20.739Z,3.15
2024-01-30T02:10:20.875Z,3.15
2024-01-30T02:11:20.745Z,3.12
2024-01-30T02:12:20.688Z,3.14
2024-01-30T02:13:20.724Z,3.15
2024-01-30T02:14:20.685Z,3.15
2024-01-30T02:15:20.646Z,3.12
2024-01-30T02:16:20.656Z,3.14
2024-01-30T02:17:20.617Z,3.12
2024-01-30T02:18:20.622Z,3.09
2024-01-30T02:19:20.678Z,3.11
2024-01-30T02:20:20.705Z,3.08
2024-01-30T02:21:20.612Z,3.09
2024-01-30T02:22:20.589Z,3.11
2024-01-30T02:23:20.543Z,3.11
2024-01-30T02:24:20.582Z,3.09
2024-01-30T02:25:20.670Z,3.12
2024-01-30T02:26:20.536Z,3.12
2024-01-30T02:27:20.561Z,3.12
2024-01-30T02:28:20.596Z,3.14
2024-01-30T02:29:20.486Z,3.14
2024-01-30T02:30:20.479Z,3.15
2024-01-30T02:31:20.607Z,3.17
2024-01-30T02:32:20.488Z,3.17
2024-01-30T02:33:20.474Z,3.17
2024-01-30T02:34:20.571Z,3.18
2024-01-30T02:35:20.507Z,3.15
2024-01-30T02:36:20.448Z,3.17
2024-01-30T02:37:20.454Z,3.17
2024-01-30T02:38:20.425Z,3.15
2024-01-30T02:39:20.398Z,3.14
2024-01-30T02:40:20.493Z,3.14
2024-01-30T02:41:20.363Z,3.18
2024-01-30T02:42:20.378Z,3.20
2024-01-30T02:43:20.493Z,3.22
2024-01-30T02:44:20.353Z,3.17
2024-01-30T02:45:20.312Z,3.22
2024-01-30T02:46:20.335Z,3.20
2024-01-30T02:47:20.289Z,3.23
2024-01-30T02:48:20.308Z,3.17
2024-01-30T02:49:20.354Z,3.17
2024-01-30T02:50:20.381Z,3.12
2024-01-30T02:51:20.245Z,3.12
2024-01-30T02:52:20.305Z,3.11
2024-01-30T02:53:20.224Z,3.09
2024-01-30T02:54:20.228Z,3.09
2024-01-30T02:55:20.307Z,3.07
2024-01-30T02:56:20.193Z,3.07
2024-01-30T02:57:20.173Z,3.09
2024-01-30T02:58:20.224Z,3.12
2024-01-30T02:59:20.190Z,3.11
2024-01-30T03:00:20.154Z,3.11
2024-01-30T03:01:20.225Z,3.09
2024-01-30T03:02:20.225Z,3.11
2024-01-30T03:03:20.174Z,3.09
2024-01-30T03:04:20.251Z,3.08
2024-01-30T03:05:20.099Z,3.08
2024-01-30T03:06:20.157Z,3.07
2024-01-30T03:07:20.148Z,3.09
2024-01-30T03:08:20.134Z,3.08
2024-01-30T03:09:20.113Z,3.09
2024-01-30T03:10:20.093Z,3.07
2024-01-30T03:11:20.123Z,3.05
2024-01-30T03:12:20.029Z,3.05
2024-01-30T03:13:20.057Z,3.04
2024-01-30T03:14:20.005Z,2.99
2024-01-30T03:15:19.983Z,2.99
2024-01-30T03:16:19.988Z,2.94
2024-01-30T03:17:19.952Z,2.96
2024-01-30T03:18:19.975Z,2.94
2024-01-30T03:19:20.052Z,2.94
2024-01-30T03:20:19.928Z,2.94
2024-01-30T03:21:19.936Z,2.90
2024-01-30T03:22:19.952Z,2.91
2024-01-30T03:23:19.902Z,2.87
2024-01-30T03:24:19.877Z,2.87
2024-01-30T03:25:19.967Z,2.87
2024-01-30T03:26:19.879Z,2.87
2024-01-30T03:27:19.843Z,2.84
2024-01-30T03:28:19.975Z,2.84
2024-01-30T03:29:19.833Z,2.84
2024-01-30T03:30:19.821Z,2.84
2024-01-30T03:31:19.978Z,2.82
2024-01-30T03:32:19.815Z,2.82
2024-01-30T03:33:19.881Z,2.84
2024-01-30T03:34:19.821Z,2.81
2024-01-30T03:35:19.792Z,2.84
2024-01-30T03:36:19.778Z,2.82
2024-01-30T03:37:19.804Z,2.87
2024-01-30T03:38:19.746Z,2.84
2024-01-30T03:39:19.754Z,2.84
2024-01-30T03:40:19.735Z,2.87
2024-01-30T03:41:19.732Z,2.84
2024-01-30T03:42:19.679Z,2.89
2024-01-30T03:43:19.827Z,2.90
2024-01-30T03:44:19.665Z,2.93
2024-01-30T03:45:19.659Z,2.91
2024-01-30T03:46:19.739Z,2.93
2024-01-30T03:47:19.657Z,2.94
2024-01-30T03:48:19.632Z,2.94
2024-01-30T03:49:19.791Z,2.90
2024-01-30T03:50:19.671Z,2.89
2024-01-30T03:51:19.587Z,2.86
2024-01-30T03:52:19.601Z,2.82
2024-01-30T03:53:19.580Z,2.79
2024-01-30T03:54:19.549Z,2.76
2024-01-30T03:55:19.648Z,2.73
2024-01-30T03:56:19.532Z,2.71
2024-01-30T03:57:19.567Z,2.73
2024-01-30T03:58:19.617Z,2.69
2024-01-30T03:59:19.527Z,2.71
2024-01-30T04:00:19.485Z,2.71
2024-01-30T04:01:19.532Z,2.68
2024-01-30T04:02:19.667Z,2.68
2024-01-30T04:03:19.452Z,2.69
2024-01-30T04:04:19.521Z,2.65
2024-01-30T04:05:19.462Z,2.63
2024-01-30T04:06:19.430Z,2.65
2024-01-30T04:07:22.309Z,2.60
2024-01-30T04:08:19.422Z,2.57
2024-01-30T04:09:19.408Z,2.58
2024-01-30T04:10:19.433Z,2.61
2024-01-30T04:11:19.384Z,2.61
2024-01-30T04:12:19.347Z,2.61
2024-01-30T04:13:19.426Z,2.65
2024-01-30T04:14:19.323Z,2.63
2024-01-30T04:15:19.350Z,2.69
2024-01-30T04:16:19.421Z,2.66
2024-01-30T04:17:19.325Z,2.60
2024-01-30T04:18:19.330Z,2.60
2024-01-30T04:19:19.439Z,2.63
2024-01-30T04:20:19.421Z,2.63
2024-01-30T04:21:19.265Z,2.63
2024-01-30T04:22:19.303Z,2.65
2024-01-30T04:23:19.247Z,2.65
2024-01-30T04:24:19.223Z,2.65
2024-01-30T04:25:19.303Z,2.68
2024-01-30T04:26:19.195Z,2.66
2024-01-30T04:27:19.183Z,2.65
2024-01-30T04:28:19.311Z,2.65
2024-01-30T04:29:19.208Z,2.66
2024-01-30T04:30:19.160Z,2.66
2024-01-30T04:31:19.213Z,2.66
2024-01-30T04:32:19.133Z,2.63
2024-01-30T04:33:19.143Z,2.61
2024-01-30T04:34:19.238Z,2.60
2024-01-30T04:35:19.231Z,2.63
2024-01-30T04:36:19.124Z,2.63
2024-01-30T04:37:19.149Z,2.61
2024-01-30T04:38:19.128Z,2.60
2024-01-30T04:39:19.074Z,2.58
2024-01-30T04:40:19.102Z,2.60
2024-01-30T04:41:19.031Z,2.58
2024-01-30T04:42:19.048Z,2.55
2024-01-30T04:43:19.098Z,2.54
2024-01-30T04:44:18.999Z,2.55
2024-01-30T04:45:19.007Z,2.53
2024-01-30T04:46:19.049Z,2.53
2024-01-30T04:47:18.964Z,2.50
2024-01-30T04:48:19.064Z,2.51
2024-01-30T04:49:19.026Z,2.47
2024-01-30T04:50:18.940Z,2.50
2024-01-30T04:51:19.046Z,2.50
2024-01-30T04:52:18.992Z,2.50
2024-01-30T04:53:18.964Z,2.48
2024-01-30T04:54:18.891Z,2.48
2024-01-30T04:55:21.292Z,2.48
2024-01-30T04:56:18.882Z,2.48
2024-01-30T04:57:18.865Z,2.48
2024-01-30T04:58:18.974Z,2.50
2024-01-30T04:59:18.857Z,2.51
2024-01-30T05:00:18.832Z,2.53
2024-01-30T05:01:18.975Z,2.51
2024-01-30T05:02:18.872Z,2.50
2024-01-30T05:03:18.871Z,2.51
2024-01-30T05:04:18.900Z,2.53
2024-01-30T05:05:18.801Z,2.55
2024-01-30T05:06:18.788Z,2.54
2024-01-30T05:07:18.831Z,2.53
2024-01-30T05:08:18.735Z,2.54
2024-01-30T05:09:18.735Z,2.53
2024-01-30T05:10:18.783Z,2.54
2024-01-30T05:11:18.705Z,2.54
2024-01-30T05:12:18.740Z,2.54
2024-01-30T05:13:18.748Z,2.55
2024-01-30T05:14:18.678Z,2.55
2024-01-30T05:15:18.685Z,2.55
2024-01-30T05:16:18.765Z,2.60
2024-01-30T05:17:18.666Z,2.57
2024-01-30T05:18:18.735Z,2.60
2024-01-30T05:19:19.007Z,2.60
2024-01-30T05:20:18.649Z,2.58
2024-01-30T05:21:18.624Z,2.55
2024-01-30T05:22:18.746Z,2.58
2024-01-30T05:23:18.603Z,2.60
2024-01-30T05:24:21.076Z,2.60
2024-01-30T05:25:18.660Z,2.61
2024-01-30T05:26:18.551Z,2.61
2024-01-30T05:27:18.542Z,2.60
2024-01-30T05:28:18.567Z,2.63
2024-01-30T05:29:18.517Z,2.63
2024-01-30T05:30:18.542Z,2.61
2024-01-30T05:31:18.542Z,2.61
2024-01-30T05:32:18.517Z,2.58
2024-01-30T05:33:18.567Z,2.58
2024-01-30T05:34:18.474Z,2.57
2024-01-30T05:35:18.515Z,2.54
2024-01-30T05:36:18.472Z,2.51
2024-01-30T05:37:18.671Z,2.53
2024-01-30T05:38:18.416Z,2.51
2024-01-30T05:39:18.434Z,2.45
2024-01-30T05:40:18.529Z,2.45
2024-01-30T05:41:18.420Z,2.43
2024-01-30T05:42:18.365Z,2.43
2024-01-30T05:43:18.499Z,2.40
2024-01-30T05:44:18.349Z,2.39
2024-01-30T05:45:18.423Z,2.40
2024-01-30T05:46:19.352Z,2.39
2024-01-30T05:47:18.351Z,2.40
2024-01-30T05:48:18.289Z,2.39
2024-01-30T05:49:18.318Z,2.36
2024-01-30T05:50:18.349Z,2.35
2024-01-30T05:51:18.320Z,2.36
2024-01-30T05:52:18.324Z,2.37
2024-01-30T05:53:18.291Z,2.36
2024-01-30T05:54:18.394Z,2.37
2024-01-30T05:55:18.266Z,2.36
2024-01-30T05:56:18.229Z,2.35
2024-01-30T05:57:18.227Z,2.35
2024-01-30T05:58:18.365Z,2.35
2024-01-30T05:59:18.202Z,2.35
2024-01-30T06:00:18.240Z,2.36
2024-01-30T06:01:18.314Z,2.35
2024-01-30T06:02:18.226Z,2.35
2024-01-30T06:03:18.168Z,2.33
2024-01-30T06:04:18.272Z,2.33
2024-01-30T06:05:18.159Z,2.29
2024-01-30T06:06:18.153Z,2.28
2024-01-30T06:07:18.152Z,2.25
2024-01-30T06:08:18.144Z,2.21
2024-01-30T06:09:18.081Z,2.19
2024-01-30T06:10:18.152Z,2.19
2024-01-30T06:11:18.072Z,2.19
2024-01-30T06:12:18.046Z,2.17
2024-01-30T06:13:18.089Z,2.17
2024-01-30T06:14:18.051Z,2.15
2024-01-30T06:15:18.020Z,2.15
2024-01-30T06:16:18.039Z,2.14
2024-01-30T06:17:17.945Z,2.14
2024-01-30T06:18:17.977Z,2.10
2024-01-30T06:19:18.024Z,2.11
2024-01-30T06:20:17.957Z,2.11
2024-01-30T06:21:17.884Z,2.10
2024-01-30T06:22:18.084Z,2.10
2024-01-30T06:23:17.925Z,2.11
2024-01-30T06:24:17.908Z,2.11
2024-01-30T06:25:17.992Z,2.15
2024-01-30T06:26:17.836Z,2.14
2024-01-30T06:27:17.810Z,2.14
2024-01-30T06:28:17.865Z,2.15
2024-01-30T06:29:20.234Z,2.18
2024-01-30T06:30:17.940Z,2.17
2024-01-30T06:31:17.927Z,2.18
2024-01-30T06:32:17.797Z,2.14
2024-01-30T06:33:17.857Z,2.10
2024-01-30T06:34:17.879Z,2.07
2024-01-30T06:35:17.760Z,2.07
2024-01-30T06:36:17.734Z,2.10
2024-01-30T06:37:17.833Z,2.06
2024-01-30T06:38:17.729Z,2.04
2024-01-30T06:39:17.709Z,2.04
2024-01-30T06:40:17.713Z,2.07
2024-01-30T06:41:17.693Z,2.07
2024-01-30T06:42:17.739Z,2.06
2024-01-30T06:43:17.768Z,2.10
2024-01-30T06:44:17.650Z,2.10
2024-01-30T06:45:17.663Z,2.11
2024-01-30T06:46:17.664Z,2.10
2024-01-30T06:47:17.623Z,2.07
2024-01-30T06:48:17.652Z,2.07
2024-01-30T06:49:17.604Z,2.06
2024-01-30T06:50:17.619Z,2.07
2024-01-30T06:51:18.398Z,2.07
2024-01-30T06:52:17.620Z,2.04
2024-01-30T06:53:17.582Z,2.03
2024-01-30T06:54:17.580Z,2.03
2024-01-30T06:55:17.586Z,2.01
2024-01-30T06:56:17.544Z,2.06
2024-01-30T06:57:17.489Z,2.04
2024-01-30T06:58:17.567Z,2.06
2024-01-30T06:59:17.536Z,2.01
2024-01-30T07:00:17.583Z,2.04
2024-01-30T07:01:17.592Z,2.04
2024-01-30T07:02:17.510Z,2.06
2024-01-30T07:03:17.430Z,2.04
2024-01-30T07:04:17.541Z,2.06
2024-01-30T07:05:17.422Z,2.04
2024-01-30T07:06:17.451Z,2.06
2024-01-30T07:07:17.522Z,2.04
2024-01-30T07:08:17.364Z,2.11
2024-01-30T07:09:17.367Z,2.04
2024-01-30T07:10:17.388Z,2.03
2024-01-30T07:11:17.352Z,2.04
2024-01-30T07:12:17.462Z,2.03
2024-01-30T07:13:17.403Z,2.01
2024-01-30T07:14:17.297Z,1.97
2024-01-30T07:15:17.308Z,1.99
2024-01-30T07:16:17.300Z,1.99
2024-01-30T07:17:17.289Z,1.97
2024-01-30T07:18:17.285Z,1.97
2024-01-30T07:19:17.330Z,1.99
2024-01-30T07:20:18.446Z,2.00
2024-01-30T07:21:17.254Z,1.99
2024-01-30T07:22:17.292Z,2.00
2024-01-30T07:23:17.231Z,1.99
2024-01-30T07:24:17.215Z,2.00
2024-01-30T07:25:17.201Z,2.01
2024-01-30T07:26:17.172Z,2.00
2024-01-30T07:27:17.168Z,2.00
2024-01-30T07:28:17.260Z,1.99
2024-01-30T07:29:17.172Z,2.00
2024-01-30T07:30:17.149Z,2.00
2024-01-30T07:31:17.181Z,2.01
2024-01-30T07:32:17.138Z,2.01
2024-01-30T07:33:17.198Z,2.00
2024-01-30T07:34:17.249Z,2.03
2024-01-30T07:35:17.209Z,2.04
2024-01-30T07:36:17.084Z,2.07
2024-01-30T07:37:17.108Z,2.07
2024-01-30T07:38:17.049Z,2.04
2024-01-30T07:39:17.052Z,2.03
2024-01-30T07:40:17.065Z,2.03
2024-01-30T07:41:17.011Z,2.04
2024-01-30T07:42:17.001Z,2.01
2024-01-30T07:43:17.014Z,2.04
2024-01-30T07:44:16.986Z,2.04
2024-01-30T07:45:16.984Z,2.07
2024-01-30T07:46:17.074Z,2.07
2024-01-30T07:47:16.954Z,2.10
2024-01-30T07:48:16.999Z,2.12
2024-01-30T07:49:17.010Z,2.12
2024-01-30T07:50:16.953Z,2.12
2024-01-30T07:51:16.925Z,2.15
2024-01-30T07:52:16.916Z,2.15
2024-01-30T07:53:17.037Z,2.15
2024-01-30T07:54:16.896Z,2.17
2024-01-30T07:55:16.856Z,2.18
2024-01-30T07:56:16.865Z,2.19
2024-01-30T07:57:16.860Z,2.22
2024-01-30T07:58:16.875Z,2.22
2024-01-30T07:59:16.828Z,2.24
2024-01-30T08:00:16.828Z,2.22
2024-01-30T08:01:17.001Z,2.25
2024-01-30T08:02:16.785Z,2.29
2024-01-30T08:03:16.803Z,2.30
2024-01-30T08:04:16.947Z,2.30
2024-01-30T08:05:16.782Z,2.33
2024-01-30T08:06:16.796Z,2.36
2024-01-30T08:07:16.817Z,2.36
2024-01-30T08:08:16.719Z,2.37
2024-01-30T08:09:16.744Z,2.37
2024-01-30T08:10:16.834Z,2.39
2024-01-30T08:11:16.690Z,2.39
2024-01-30T08:12:16.680Z,2.40
2024-01-30T08:13:16.762Z,2.42
2024-01-30T08:14:16.693Z,2.45
2024-01-30T08:15:16.692Z,2.42
2024-01-30T08:16:16.704Z,2.47
2024-01-30T08:17:16.632Z,2.51
2024-01-30T08:18:16.714Z,2.55
2024-01-30T08:19:16.748Z,2.61
2024-01-30T08:20:16.639Z,2.65
2024-01-30T08:21:16.627Z,2.69
2024-01-30T08:22:16.702Z,2.75
2024-01-30T08:23:16.647Z,2.76
2024-01-30T08:24:16.605Z,2.81
2024-01-30T08:25:16.730Z,2.82
2024-01-30T08:26:16.802Z,2.87
2024-01-30T08:27:16.683Z,2.90
2024-01-30T08:28:18.877Z,2.94
2024-01-30T08:29:16.704Z,2.96
2024-01-30T08:30:16.531Z,2.97
2024-01-30T08:31:16.695Z,3.00
2024-01-30T08:32:16.500Z,3.04
2024-01-30T08:33:16.604Z,3.04
2024-01-30T08:34:16.531Z,3.09
2024-01-30T08:35:16.597Z,3.12
2024-01-30T08:36:16.424Z,3.12
2024-01-30T08:37:16.468Z,3.18
2024-01-30T08:38:16.624Z,3.18
2024-01-30T08:39:16.411Z,3.22
2024-01-30T08:40:16.476Z,3.25
2024-01-30T08:41:16.460Z,3.26
2024-01-30T08:42:16.448Z,3.27
2024-01-30T08:43:16.450Z,3.32
2024-01-30T08:44:16.461Z,3.32
2024-01-30T08:45:16.456Z,3.37
2024-01-30T08:46:16.437Z,3.42
2024-01-30T08:47:16.352Z,3.44
2024-01-30T08:48:16.409Z,3.45
2024-01-30T08:49:16.380Z,3.48
2024-01-30T08:50:16.297Z,3.48
2024-01-30T08:51:16.304Z,3.52
2024-01-30T08:52:16.458Z,3.54
2024-01-30T08:53:16.283Z,3.55
2024-01-30T08:54:16.272Z,3.54
2024-01-30T08:55:16.474Z,3.60
2024-01-30T08:56:16.315Z,3.63
2024-01-30T08:57:16.248Z,3.63
2024-01-30T08:58:16.286Z,3.66
2024-01-30T08:59:16.209Z,3.67
2024-01-30T09:00:16.178Z,3.69
2024-01-30T09:01:16.242Z,3.74
2024-01-30T09:02:16.454Z,3.74
2024-01-30T09:03:16.255Z,3.76
2024-01-30T09:04:16.209Z,3.78
2024-01-30T09:05:16.182Z,3.80
2024-01-30T09:06:16.157Z,3.84
2024-01-30T09:07:16.202Z,3.84
2024-01-30T09:08:16.223Z,3.85
2024-01-30T09:09:16.091Z,3.87
2024-01-30T09:10:18.395Z,3.87
2024-01-30T09:11:16.044Z,3.90
2024-01-30T09:12:16.041Z,3.91
2024-01-30T09:13:16.563Z,3.91
2024-01-30T09:14:16.033Z,3.90
2024-01-30T09:15:16.005Z,3.91
2024-01-30T09:16:16.074Z,3.91
2024-01-30T09:17:15.972Z,3.94
2024-01-30T09:18:15.997Z,3.94
2024-01-30T09:19:16.077Z,3.96
2024-01-30T09:20:16.021Z,3.98
2024-01-30T09:21:15.954Z,3.96
2024-01-30T09:22:15.967Z,4.00
2024-01-30T09:23:15.939Z,4.00
2024-01-30T09:24:15.918Z,4.00
2024-01-30T09:25:15.919Z,4.05
2024-01-30T09:26:15.902Z,4.06
2024-01-30T09:27:15.888Z,4.05
2024-01-30T09:28:15.928Z,4.09
2024-01-30T09:29:15.835Z,4.08
2024-01-30T09:30:15.853Z,4.09
2024-01-30T09:31:15.906Z,4.09
2024-01-30T09:32:15.836Z,4.10
2024-01-30T09:33:15.856Z,4.13
2024-01-30T09:34:15.888Z,4.13
2024-01-30T09:35:16.063Z,4.13
2024-01-30T09:36:15.783Z,4.18
2024-01-30T09:37:15.770Z,4.17
2024-01-30T09:38:15.770Z,4.18
2024-01-30T09:39:15.802Z,4.20
2024-01-30T09:40:15.841Z,4.21
2024-01-30T09:41:15.710Z,4.18
2024-01-30T09:42:15.710Z,4.21
2024-01-30T09:43:15.725Z,4.21
2024-01-30T09:44:15.691Z,4.20
2024-01-30T09:45:15.682Z,4.23
2024-01-30T09:46:15.712Z,4.26
2024-01-30T09:47:15.668Z,4.27
2024-01-30T09:48:15.699Z,4.28
2024-01-30T09:49:17.696Z,4.30
2024-01-30T09:50:15.709Z,4.31
2024-01-30T09:51:15.678Z,4.35
2024-01-30T09:52:15.676Z,4.35
2024-01-30T09:53:15.690Z,4.38
2024-01-30T09:54:15.683Z,4.41
2024-01-30T09:55:15.670Z,4.42
2024-01-30T09:56:15.568Z,4.43
2024-01-30T09:57:15.554Z,4.46
2024-01-30T09:58:15.640Z,4.45
2024-01-30T09:59:15.588Z,4.49
2024-01-30T10:00:15.560Z,4.48
2024-01-30T10:01:15.607Z,4.46
2024-01-30T10:02:15.596Z,4.49
2024-01-30T10:03:15.588Z,4.51
2024-01-30T10:04:15.609Z,4.49
2024-01-30T10:05:15.463Z,4.51
2024-01-30T10:06:15.444Z,4.54
2024-01-30T10:07:15.538Z,4.56
2024-01-30T10:08:15.759Z,4.56
2024-01-30T10:09:15.425Z,4.59
2024-01-30T10:10:15.484Z,4.59
2024-01-30T10:11:15.410Z,4.59
2024-01-30T10:12:15.390Z,4.61
2024-01-30T10:13:15.424Z,4.63
2024-01-30T10:14:15.386Z,4.61
2024-01-30T10:15:15.390Z,4.66
2024-01-30T10:16:15.377Z,4.64
2024-01-30T10:17:21.832Z,4.64
2024-01-30T10:18:15.377Z,4.69
2024-01-30T10:19:15.370Z,4.71
2024-01-30T10:20:15.455Z,4.67
2024-01-30T10:21:15.294Z,4.74
2024-01-30T10:22:15.289Z,4.72
2024-01-30T10:23:15.252Z,4.75
2024-01-30T10:24:15.322Z,4.74
2024-01-30T10:25:15.273Z,4.75
2024-01-30T10:26:15.256Z,4.78
2024-01-30T10:27:15.234Z,4.83
2024-01-30T10:28:15.255Z,4.83
2024-01-30T10:29:15.191Z,4.88
2024-01-30T10:30:15.358Z,4.89
2024-01-30T10:31:15.240Z,4.89
2024-01-30T10:32:15.188Z,4.94
2024-01-30T10:33:15.279Z,4.97
2024-01-30T10:34:20.106Z,4.97
2024-01-30T10:35:15.252Z,4.98
2024-01-30T10:36:17.642Z,5.03
2024-01-30T10:37:15.148Z,5.00
2024-01-30T10:38:15.114Z,5.04
2024-01-30T10:39:15.098Z,5.07
2024-01-30T10:40:15.141Z,5.06
2024-01-30T10:41:15.070Z,5.07
2024-01-30T10:42:15.043Z,5.11
2024-01-30T10:43:15.124Z,5.09
2024-01-30T10:44:15.186Z,5.12
2024-01-30T10:45:15.150Z,5.11
2024-01-30T10:46:15.022Z,5.14
2024-01-30T10:47:15.023Z,5.14
2024-01-30T10:48:15.056Z,5.18
2024-01-30T10:49:15.077Z,5.16
2024-01-30T10:50:15.134Z,5.18
2024-01-30T10:51:14.942Z,5.19
2024-01-30T10:52:14.951Z,5.21
2024-01-30T10:53:14.927Z,5.22
2024-01-30T10:54:14.913Z,5.21
2024-01-30T10:55:15.038Z,5.24
2024-01-30T10:56:14.891Z,5.24
2024-01-30T10:57:14.886Z,5.24
2024-01-30T10:58:14.896Z,5.29
2024-01-30T10:59:14.856Z,5.25
2024-01-30T11:00:14.862Z,5.27
2024-01-30T11:01:14.922Z,5.29
2024-01-30T11:02:14.877Z,5.32
2024-01-30T11:03:14.804Z,5.36
2024-01-30T11:04:14.916Z,5.43
2024-01-30T11:05:14.873Z,5.48
2024-01-30T11:06:14.797Z,5.57
2024-01-30T11:07:14.785Z,5.58
2024-01-30T11:08:14.796Z,5.59
2024-01-30T11:09:14.753Z,5.62
2024-01-30T11:10:14.799Z,5.66
2024-01-30T11:11:17.301Z,5.69
2024-01-30T11:12:14.752Z,5.66
2024-01-30T11:13:14.756Z,5.66
2024-01-30T11:14:14.703Z,5.72
2024-01-30T11:15:14.719Z,5.77
2024-01-30T11:16:14.713Z,5.82
2024-01-30T11:17:14.682Z,5.88
2024-01-30T11:18:14.720Z,5.91
2024-01-30T11:19:14.760Z,5.90
2024-01-30T11:20:14.654Z,5.91
2024-01-30T11:21:14.618Z,5.93
2024-01-30T11:22:14.634Z,5.91
2024-01-30T11:23:14.587Z,5.93
2024-01-30T11:24:14.596Z,5.97
2024-01-30T11:25:14.614Z,5.95
2024-01-30T11:26:14.565Z,6.00
2024-01-30T11:27:14.552Z,6.03
2024-01-30T11:28:14.697Z,6.03
2024-01-30T11:29:14.554Z,6.05
2024-01-30T11:30:14.531Z,6.12
2024-01-30T11:31:14.578Z,6.12
2024-01-30T11:32:14.523Z,6.18
2024-01-30T11:33:14.642Z,6.19
2024-01-30T11:34:14.503Z,6.24
2024-01-30T11:35:14.567Z,6.27
2024-01-30T11:36:14.477Z,6.31
2024-01-30T11:37:14.505Z,6.34
2024-01-30T11:38:14.453Z,6.35
2024-01-30T11:39:14.433Z,6.35
2024-01-30T11:40:14.486Z,6.37
2024-01-30T11:41:14.411Z,6.42
2024-01-30T11:42:14.411Z,6.46
2024-01-30T11:43:14.508Z,6.57
2024-01-30T11:44:14.376Z,6.70
2024-01-30T11:45:14.361Z,6.82
2024-01-30T11:46:14.386Z,6.89
2024-01-30T11:47:14.346Z,6.92
2024-01-30T11:48:14.479Z,6.97
2024-01-30T11:49:14.374Z,7.00
2024-01-30T11:50:14.417Z,7.04
2024-01-30T11:51:14.284Z,7.11
2024-01-30T11:52:14.328Z,7.18
2024-01-30T11:53:14.294Z,7.25
2024-01-30T11:54:14.285Z,7.31
2024-01-30T11:55:14.307Z,7.34
2024-01-30T11:56:14.240Z,7.37
2024-01-30T11:57:14.214Z,7.39
2024-01-30T11:58:14.250Z,7.46
2024-01-30T11:59:14.248Z,7.49
2024-01-30T12:00:14.215Z,7.50
2024-01-30T12:01:14.278Z,7.54
2024-01-30T12:02:14.203Z,7.54
2024-01-30T12:03:14.163Z,7.54
2024-01-30T12:04:14.203Z,7.57
2024-01-30T12:05:14.145Z,7.61
2024-01-30T12:06:14.225Z,7.61
2024-01-30T12:07:14.169Z,7.60
2024-01-30T12:08:14.212Z,7.60
2024-01-30T12:09:14.102Z,7.58
2024-01-30T12:10:14.130Z,7.62
2024-01-30T12:11:14.103Z,7.64
2024-01-30T12:12:14.087Z,7.61
2024-01-30T12:13:14.086Z,7.62
2024-01-30T12:14:14.042Z,7.58
2024-01-30T12:15:14.075Z,7.57
2024-01-30T12:16:14.059Z,7.55
2024-01-30T12:17:14.005Z,7.57
2024-01-30T12:18:14.007Z,7.57
2024-01-30T12:19:14.011Z,7.57
2024-01-30T12:20:14.160Z,7.54
2024-01-30T12:21:13.959Z,7.55
2024-01-30T12:22:13.963Z,7.54
2024-01-30T12:23:13.938Z,7.57
2024-01-30T12:24:13.951Z,7.55
2024-01-30T12:25:14.039Z,7.58
2024-01-30T12:26:13.914Z,7.54
2024-01-30T12:27:13.888Z,7.52
2024-01-30T12:28:13.921Z,7.50
2024-01-30T12:29:13.912Z,7.49
2024-01-30T12:30:13.888Z,7.52
2024-01-30T12:31:13.962Z,7.50
2024-01-30T12:32:13.844Z,7.47
2024-01-30T12:33:13.882Z,7.47
2024-01-30T12:34:13.893Z,7.44
2024-01-30T12:35:14.050Z,7.42
2024-01-30T12:36:13.890Z,7.36
2024-01-30T12:37:13.865Z,7.36
2024-01-30T12:38:13.778Z,7.36
2024-01-30T12:39:13.832Z,7.44
2024-01-30T12:40:13.776Z,7.44
2024-01-30T12:41:13.744Z,7.47
2024-01-30T12:42:13.762Z,7.49
2024-01-30T12:43:16.869Z,7.47
2024-01-30T12:44:13.716Z,7.46
2024-01-30T12:45:13.710Z,7.47
2024-01-30T12:46:13.719Z,7.49
2024-01-30T12:47:13.698Z,7.50
2024-01-30T12:48:13.707Z,7.54
2024-01-30T12:49:13.983Z,7.54
2024-01-30T12:50:13.650Z,7.52
2024-01-30T12:51:13.630Z,7.54
2024-01-30T12:52:13.671Z,7.54
2024-01-30T12:53:13.635Z,7.50
2024-01-30T12:54:13.615Z,7.52
2024-01-30T12:55:13.604Z,7.55
2024-01-30T12:56:13.617Z,7.57
2024-01-30T12:57:13.621Z,7.57
2024-01-30T12:58:13.646Z,7.61
2024-01-30T12:59:13.700Z,7.62
2024-01-30T13:00:13.675Z,7.66
2024-01-30T13:01:13.747Z,7.66
2024-01-30T13:02:13.515Z,7.68
2024-01-30T13:03:13.502Z,7.68
2024-01-30T13:04:14.084Z,7.71
2024-01-30T13:05:13.717Z,7.69
2024-01-30T13:06:13.559Z,7.73
2024-01-30T13:07:13.630Z,7.73
2024-01-30T13:08:13.587Z,7.71
2024-01-30T13:09:13.567Z,7.71
2024-01-30T13:10:13.668Z,7.74
2024-01-30T13:11:20.588Z,7.74
2024-01-30T13:12:13.455Z,7.77
2024-01-30T13:13:19.714Z,7.80
2024-01-30T13:14:13.484Z,7.88
2024-01-30T13:15:13.561Z,7.92
2024-01-30T13:16:13.402Z,7.96
2024-01-30T13:17:13.485Z,7.96
2024-01-30T13:18:13.512Z,7.96